Latest Weather Observations for Central Arnhem Plateau

IDD60801

Issued at 10:35 pm CST Saturday 23 August 2014 (issued every 30 minutes, with the page automatically refreshed every 10 minutes)

About weather observations | Map of weather stations | Latest weather observations for NT | Other Formats
Station Details ID: 014909 Name: CENTRAL ARNHEM PLATEAU Lat: -13.33 Lon: 133.09 Height: 416.0 m
Data from the previous 72 hours. | See also: Recent months for locations in Northern Territory
Date/Time
CST
Temp
°C
App
Temp
°C
Dew
Point
Rel
Hum
%
Delta-T
°C
Wind Press
QNH
hPa
Press
MSL
hPa
Rain
since 9 am
mm
Dir
 
Spd
km/h
Gust
km/h
Spd
kts
Gust
kts
23/10:30pm 18.5 14.8 -3.0 23 9.0 SSE 7 9 4 5 1016.9 1014.8 0.0
23/10:00pm 18.8 15.4 -2.2 24 9.0 SE 6 7 3 4 1016.8 - 0.0
23/09:30pm 19.3 15.8 -2.9 22 9.4 SE 6 7 3 4 1016.7 1014.6 0.0
23/09:00pm 20.1 16.3 -3.5 20 9.9 SE 7 9 4 5 1016.6 1014.5 0.0
23/08:30pm 21.3 18.4 -4.0 18 10.7 ESE 2 6 1 3 1016.5 1014.4 0.0
23/08:00pm 22.8 19.1 -4.3 16 11.5 ENE 6 6 3 3 1016.0 - 0.0
23/07:30pm 25.2 21.0 -4.2 14 12.8 ESE 9 11 5 6 1015.7 1013.6 0.0
23/07:00pm 26.2 22.1 -3.4 14 13.2 ESE 9 13 5 7 1015.3 - 0.0
23/06:30pm 27.3 22.3 -4.6 12 14.0 SE 13 15 7 8 1014.9 1012.8 0.0
23/06:00pm 28.3 23.2 -4.9 11 14.6 ESE 13 20 7 11 1014.5 1012.4 0.0
23/05:30pm 28.4 22.6 -4.9 11 14.7 SE 17 24 9 13 1014.3 1012.2 0.0
23/05:00pm 29.1 23.3 -4.3 11 15.0 E 17 20 9 11 1014.3 - 0.0
23/04:30pm 28.9 22.5 -4.5 11 14.9 ESE 20 32 11 17 1014.2 1012.1 0.0
23/04:00pm 29.3 23.0 -4.2 11 15.1 SE 20 28 11 15 1014.1 - 0.0
23/03:30pm 28.6 22.8 -4.7 11 14.8 SE 17 22 9 12 1014.4 1012.3 0.0
23/03:00pm 28.9 23.1 -4.5 11 14.9 ESE 17 24 9 13 1014.8 1012.7 0.0
23/02:30pm 28.8 22.4 -4.6 11 14.9 E 20 33 11 18 1015.3 1013.2 0.0
23/02:00pm 28.2 22.5 -3.9 12 14.4 SE 17 28 9 15 1015.5 - 0.0
23/01:30pm 27.8 21.5 -4.2 12 14.2 ESE 20 35 11 19 1015.9 1013.8 0.0
23/01:00pm 28.8 22.6 -3.4 12 14.7 ESE 20 30 11 16 1016.3 - 0.0
23/12:30pm 26.9 20.1 -4.9 12 13.9 E 22 32 12 17 1016.7 1014.6 0.0
23/12:00pm 27.1 20.7 -4.7 12 13.9 SE 20 32 11 17 1017.0 1014.9 0.0
23/11:30am 25.7 17.3 -5.8 12 13.4 SE 30 41 16 22 1017.5 1015.4 0.0
23/11:00am 25.4 18.2 -5.0 13 13.1 ESE 24 35 13 19 1017.9 - 0.0
23/10:30am 24.6 18.2 -4.6 14 12.5 SE 20 30 11 16 1018.3 1016.3 0.0
23/10:00am 23.2 18.2 -4.0 16 11.7 ESE 13 19 7 10 1018.5 - 0.0
23/09:30am 22.0 16.3 -4.1 17 11.0 ESE 17 24 9 13 1018.5 1016.5 0.0
23/09:00am 19.8 14.5 -3.8 20 9.8 ESE 15 20 8 11 1018.3 1016.3 0.0
23/08:30am 17.5 12.7 -2.7 25 8.4 ESE 13 17 7 9 1018.1 1016.0 0.0
23/08:00am 16.3 12.1 -3.7 25 8.1 ESE 9 13 5 7 1018.0 - 0.0
23/07:30am 15.6 11.6 -2.3 29 7.4 SSE 9 13 5 7 1017.6 1015.5 0.0
23/07:00am 11.0 7.6 -2.1 40 5.2 E 6 6 3 3 1017.4 - 0.0
23/06:30am 10.6 7.0 -1.8 42 4.9 ESE 7 7 4 4 1016.9 1014.8 0.0
23/06:00am 11.0 7.5 -1.7 41 5.1 SE 7 9 4 5 1016.8 1014.7 0.0
23/05:30am 14.5 9.6 -3.3 29 7.1 SE 13 15 7 8 1016.6 1014.5 0.0
23/05:00am 14.5 9.7 -2.8 30 7.0 SE 13 15 7 8 1016.3 - 0.0
23/04:30am 12.9 8.8 -3.0 33 6.3 E 9 11 5 6 1016.3 1014.3 0.0
23/04:00am 14.6 10.5 -3.2 29 7.2 SE 9 11 5 6 1016.3 - 0.0
23/03:30am 14.0 9.9 -3.3 30 6.9 ESE 9 11 5 6 1016.5 1014.4 0.0
23/03:00am 16.1 11.6 -2.9 27 7.8 SE 11 15 6 8 1016.6 1014.5 0.0
23/02:30am 16.9 11.7 -2.7 26 8.1 SE 15 19 8 10 1016.6 1014.5 0.0
23/02:00am 17.4 11.4 -2.8 25 8.4 SE 19 22 10 12 1016.7 - 0.0
23/01:30am 17.5 11.9 -3.3 24 8.6 SSE 17 20 9 11 1016.9 1014.8 0.0
23/01:00am 17.1 12.6 -3.1 25 8.3 SSE 11 15 6 8 1017.0 - 0.0
23/12:30am 17.4 13.6 -3.4 24 8.5 ESE 7 9 4 5 1017.2 1015.1 0.0
23/12:00am 15.9 12.1 -4.1 25 8.0 ESE 7 9 4 5 1017.3 1015.2 0.0
 
Date/Time
CST
Temp
°C
App
Temp
°C
Dew
Point
Rel
Hum
%
Delta-T
°C
Wind Press
QNH
hPa
Press
MSL
hPa
Rain
since 9 am
mm
Dir
 
Spd
km/h
Gust
km/h
Spd
kts
Gust
kts
22/11:30pm 18.6 14.4 -4.1 21 9.3 ESE 9 11 5 6 1017.4 1015.3 0.0
22/11:00pm 18.8 14.2 -4.0 21 9.4 SE 11 13 6 7 1017.2 - 0.0
22/10:30pm 18.9 14.7 -3.9 21 9.4 SE 9 11 5 6 1017.1 1015.0 0.0
22/10:00pm 16.8 14.1 -6.3 20 8.9 CALM 0 2 0 1 1016.8 - 0.0
22/09:30pm 17.8 14.0 -5.4 20 9.2 E 6 6 3 3 1016.6 1014.5 0.0
22/09:00pm 18.9 15.3 -7.4 16 10.1 SE 4 6 2 3 1016.5 1014.4 0.0
22/08:30pm 21.7 17.9 -6.0 15 11.3 SE 6 7 3 4 1016.2 1014.2 0.0
22/08:00pm 22.4 18.3 -6.4 14 11.7 SE 7 11 4 6 1015.9 - 0.0
22/07:30pm 23.4 18.6 -6.5 13 12.3 ESE 11 15 6 8 1015.5 1013.4 0.0
22/07:00pm 24.3 19.4 -6.9 12 12.8 ESE 11 13 6 7 1015.1 - 0.0
22/06:30pm 25.3 19.7 -6.1 12 13.2 ESE 15 20 8 11 1014.8 1012.7 0.0
22/06:00pm 26.4 20.8 -6.4 11 13.9 SE 15 19 8 10 1014.5 1012.4 0.0
22/05:30pm 26.6 20.5 -7.5 10 14.1 SE 17 26 9 14 1014.3 1012.2 0.0
22/05:00pm 27.1 21.1 -7.1 10 14.4 ESE 17 26 9 14 1014.2 - 0.0
22/04:30pm 27.2 20.6 -7.0 10 14.4 ESE 20 28 11 15 1014.1 1012.0 0.0
22/04:00pm 27.3 20.9 -6.9 10 14.4 SE 19 30 10 16 1014.1 - 0.0
22/03:30pm 26.7 20.1 -8.8 9 14.4 SE 19 28 10 15 1014.1 1012.0 0.0
22/03:00pm 26.9 20.3 -8.6 9 14.5 E 19 30 10 16 1014.3 1012.2 0.0
22/02:30pm 27.9 21.3 -6.5 10 14.7 S 20 26 11 14 1014.5 1012.4 0.0
22/02:00pm 26.2 19.7 -7.8 10 14.0 SSE 19 28 10 15 1015.0 - 0.0
22/01:30pm 26.5 20.0 -7.6 10 14.1 S 19 24 10 13 1015.5 1013.4 0.0
22/01:00pm 25.8 19.7 -8.1 10 13.8 SSE 17 28 9 15 1016.0 - 0.0
22/12:30pm 25.3 17.9 -7.2 11 13.4 SSE 24 33 13 18 1016.7 1014.6 0.0
22/12:00pm 25.7 19.3 -6.9 11 13.5 SSE 19 26 10 14 1017.1 1015.0 0.0
22/11:30am 24.9 17.9 -7.5 11 13.2 ESE 22 32 12 17 1017.7 1015.6 0.0
22/11:00am 24.4 17.1 -6.8 12 12.8 SE 24 33 13 18 1018.2 - 0.0
22/10:30am 23.6 16.2 -7.4 12 12.5 SE 24 32 13 17 1018.6 1016.6 0.0
22/10:00am 22.5 15.6 -6.3 14 11.8 ESE 22 32 12 17 1019.0 - 0.0
22/09:30am 20.9 13.4 -5.0 17 10.7 SE 26 39 14 21 1019.1 1017.0 0.0
22/09:00am 20.4 12.4 -5.4 17 10.5 SE 28 35 15 19 1018.7 1016.7 0.0
22/08:30am 18.5 13.4 -1.9 25 8.7 SE 15 22 8 12 1018.7 1016.7 0.0
22/08:00am 15.7 11.1 -1.4 31 7.2 SE 13 17 7 9 1018.4 - 0.0
22/07:30am 14.0 9.7 -1.6 34 6.4 ESE 11 15 6 8 1018.3 1016.3 0.0
22/07:00am 12.3 8.1 -0.9 40 5.5 ESE 11 13 6 7 1018.1 - 0.0
22/06:30am 11.9 8.0 -1.3 40 5.4 E 9 13 5 7 1017.9 1015.8 0.0
22/06:00am 12.0 7.7 -1.9 38 5.6 ESE 11 15 6 8 1017.6 1015.5 0.0
22/05:30am 14.8 10.2 -1.3 33 6.7 SE 13 19 7 10 1017.3 1015.2 0.0
22/05:00am 14.4 9.8 -1.2 34 6.5 SE 13 17 7 9 1017.0 - 0.0
22/04:30am 12.0 8.1 -1.5 39 5.5 ESE 9 13 5 7 1017.1 1015.0 0.0
22/04:00am 15.5 11.2 -1.5 31 7.2 SE 11 13 6 7 1016.9 - 0.0
22/03:30am 15.5 11.1 -2.4 29 7.4 ESE 11 13 6 7 1017.0 1014.9 0.0
22/03:00am 15.1 11.0 -2.8 29 7.3 E 9 11 5 6 1017.1 1015.0 0.0
22/02:30am 15.2 11.0 -3.6 27 7.5 ESE 9 11 5 6 1017.3 1015.2 0.0
22/02:00am 16.8 11.8 -3.9 24 8.4 SE 13 15 7 8 1017.2 - 0.0
22/01:30am 15.2 11.1 -2.7 29 7.3 E 9 9 5 5 1017.4 1015.3 0.0
22/01:00am 17.1 12.6 -3.1 25 8.3 SE 11 11 6 6 1017.6 - 0.0
22/12:30am 16.7 12.3 -2.4 27 8.0 E 11 15 6 8 1017.8 1015.7 0.0
22/12:00am 16.6 13.1 -2.5 27 7.9 E 6 7 3 4 1017.8 1015.7 0.0
 
Date/Time
CST
Temp
°C
App
Temp
°C
Dew
Point
Rel
Hum
%
Delta-T
°C
Wind Press
QNH
hPa
Press
MSL
hPa
Rain
since 9 am
mm
Dir
 
Spd
km/h
Gust
km/h
Spd
kts
Gust
kts
21/11:30pm 17.2 13.6 -2.4 26 8.2 E 7 9 4 5 1017.7 1015.6 0.0
21/11:00pm 19.9 15.3 -4.4 19 10.0 SSE 11 13 6 7 1017.6 - 0.0
21/10:30pm 20.7 16.1 -4.4 18 10.4 S 11 15 6 8 1017.6 1015.5 0.0
21/10:00pm 21.0 17.1 -4.2 18 10.6 SSE 7 13 4 7 1017.5 - 0.0
21/09:30pm 21.4 16.8 -3.9 18 10.7 SSE 11 15 6 8 1017.2 1015.1 0.0
21/09:00pm 22.0 17.9 -2.7 19 10.7 SSE 9 13 5 7 1017.1 1015.0 0.0
21/08:30pm 22.4 18.4 -2.3 19 10.9 SSE 9 11 5 6 1016.9 1014.8 0.0
21/08:00pm 23.4 19.4 -2.2 18 11.4 SSE 9 13 5 7 1016.3 - 0.0
21/07:30pm 24.2 20.1 -3.2 16 12.0 SSE 9 13 5 7 1016.0 1014.0 0.0
21/07:00pm 25.1 20.7 -2.5 16 12.4 SSE 11 13 6 7 1015.6 - 0.0
21/06:30pm 25.9 21.5 -2.7 15 12.9 SE 11 15 6 8 1015.2 1013.1 0.0
21/06:00pm 26.6 21.7 -3.1 14 13.3 SE 13 19 7 10 1014.8 1012.7 0.0
21/05:30pm 27.1 22.3 -2.7 14 13.5 SSE 13 20 7 11 1014.5 1012.4 0.0
21/05:00pm 27.1 21.9 -2.7 14 13.5 SSE 15 20 8 11 1014.3 - 0.0
21/04:30pm 28.1 23.0 -1.9 14 13.9 SSE 15 22 8 12 1014.1 1012.0 0.0
21/04:00pm 27.6 22.1 -2.3 14 13.7 SSE 17 28 9 15 1014.2 - 0.0
21/03:30pm 27.3 22.9 -2.5 14 13.6 SSE 11 26 6 14 1014.4 1012.3 0.0
21/03:00pm 27.2 22.8 -2.6 14 13.6 SSE 11 22 6 12 1014.6 1012.5 0.0
21/02:30pm 27.6 22.5 -2.3 14 13.7 S 15 26 8 14 1015.1 1013.0 0.0
21/02:00pm 26.5 20.0 -2.2 15 13.1 SSE 22 30 12 16 1015.5 - 0.0
21/01:30pm 26.3 20.4 -2.4 15 13.0 S 19 30 10 16 1015.8 1013.7 0.0
21/01:00pm 26.5 20.5 -1.3 16 12.9 SSE 20 28 11 15 1016.5 - 0.0
21/12:30pm 26.1 20.1 -1.7 16 12.8 SE 20 35 11 19 1016.8 1014.7 0.0
21/12:00pm 25.3 18.2 -1.5 17 12.3 SE 26 39 14 21 1017.4 1015.3 0.0
21/11:30am 25.3 19.4 -0.7 18 12.1 SE 20 33 11 18 1017.7 1015.6 0.0
21/11:00am 23.6 16.1 -1.3 19 11.3 ESE 28 37 15 20 1017.8 - 0.0
21/10:30am 23.3 15.4 -1.6 19 11.2 ESE 30 44 16 24 1018.2 1016.2 0.0
21/10:00am 22.8 14.8 -2.0 19 11.0 ESE 30 46 16 25 1018.3 - 0.0
21/09:30am 21.7 13.9 -0.9 22 10.2 SE 30 43 16 23 1018.4 1016.4 0.0
21/09:00am 20.3 12.9 -0.9 24 9.4 ESE 28 41 15 22 1018.2 1016.2 0.0
21/08:30am 19.1 12.3 0.7 29 8.4 SE 26 37 14 20 1018.1 1016.0 0.0
21/08:00am 17.0 11.8 2.6 38 6.7 ESE 19 28 10 15 1017.8 - 0.0
21/07:30am 15.3 11.0 3.1 44 5.6 SE 15 20 8 11 1017.4 1015.3 0.0
21/07:00am 13.7 10.3 3.8 51 4.6 ESE 11 15 6 8 1017.0 - 0.0
21/06:30am 14.0 10.5 3.5 49 4.8 ESE 11 15 6 8 1016.8 1014.7 0.0
21/06:00am 14.1 10.6 3.6 49 4.9 ESE 11 15 6 8 1016.5 1014.4 0.0
21/05:30am 15.3 11.9 3.8 46 5.4 ESE 11 15 6 8 1016.1 1014.1 0.0
21/05:00am 15.1 11.5 3.0 44 5.6 SE 11 13 6 7 1015.7 - 0.0
21/04:30am 15.2 12.0 3.0 44 5.6 ESE 9 11 5 6 1015.6 1013.5 0.0
21/04:00am 15.4 12.4 2.2 41 6.0 ESE 7 7 4 4 1015.5 - 0.0
21/03:30am 14.7 12.6 1.6 41 5.8 ESE 2 6 1 3 1015.6 1013.5 0.0
21/03:00am 15.6 12.5 1.3 38 6.4 ESE 7 9 4 5 1015.8 1013.7 0.0
21/02:30am 17.5 13.6 1.1 33 7.4 ESE 11 13 6 7 1016.0 1014.0 0.0
21/02:00am 17.3 13.0 1.3 34 7.3 ESE 13 15 7 8 1016.1 - 0.0
21/01:30am 17.9 14.0 1.4 33 7.5 ESE 11 13 6 7 1016.3 1014.3 0.0
21/01:00am 17.3 13.8 1.3 34 7.3 E 9 11 5 6 1016.7 - 0.0
21/12:30am 18.8 15.6 0.9 30 8.1 SE 7 9 4 5 1016.7 1014.6 0.0
21/12:00am 19.0 16.0 1.1 30 8.2 E 6 7 3 4 1016.9 1014.8 0.0
 
Date/Time
CST
Temp
°C
App
Temp
°C
Dew
Point
Rel
Hum
%
Delta-T
°C
Wind Press
QNH
hPa
Press
MSL
hPa
Rain
since 9 am
mm
Dir
 
Spd
km/h
Gust
km/h
Spd
kts
Gust
kts
20/11:30pm 18.4 15.4 1.0 31 7.9 SE 6 7 3 4 1017.1 1015.0 0.0
20/11:00pm 21.6 17.9 0.2 24 9.8 SSE 9 13 5 7 1017.0 - 0.0

Other Formats:

Comma delimited format used in spreadsheet applications
http://www.bom.gov.au/fwo/IDD60801/IDD60801.94141.axf

JavaScript Object Notation format (JSON) in row-major order
http://www.bom.gov.au/fwo/IDD60801/IDD60801.94141.json